Terminal Aerodrome Forecast
Issued by NWS

Home | Current Version | Previous Version | Text Only | Print | Product List | Glossary On
Versions: 1 2 3 4 5 6 7 8 9 10 11 12 13 14 15 16 17 18 19 20 21 22 23 24 25 26 27 28 29 30 31 32 33 34 35
000
FTUS45 KTWC 240520
TAFOLS
TAF
KOLS 240520Z 2406/2506 15005KT P6SM SCT080 BKN120
      TEMPO 2407/2409 17010KT P6SM -SHRA BKN080
     FM241000 VRB03KT P6SM FEW140 SCT250
     FM242000 29012KT P6SM SCT080 SCT120=

USA.gov is the U.S. government's official web portal to all federal, state and local government web resources and services.